Kibworth Harcourt, United Kingdom
Current Conditions -  °F | °C
As of 9:35 AM on Friday 31 Oct 2014 (Local Time) from EGXT Reporting Station
Haze Haze  
Wind Chill: 15°   Ceiling: Unl
Heat Index: 15°   Visibility: 4mi
Dew Point: 14°   Wind: 13mph
Humidity: 94%   Direction: 190°S
Pressure: 30"   Gusts: NA
Location:  52.54°N, 0.99°W
Report Text: EGXT 310935Z 19011KT 6000 HZ FEW170 15/14 Q1016 WHT
Loading
Personal Weather Stations






























Interactive Weather Map
Tropical Storm Tracking
New forecast layout! Learn more

10-Day Weather Forecast

Advertisements
Track Severe Weather on mobile